createdAt,value
2019-04-27T00:00:14.180Z,34.73
2019-04-27T00:02:44.097Z,33.48
2019-04-27T00:05:32.515Z,36.35
2019-04-27T00:08:17.123Z,36.53
2019-04-27T00:11:05.109Z,30.75
2019-04-27T00:13:36.277Z,34.30
2019-04-27T00:16:09.705Z,33.98
2019-04-27T00:18:56.451Z,33.65
2019-04-27T00:21:40.073Z,35.35
2019-04-27T00:24:08.594Z,32.93
2019-04-27T00:26:36.839Z,31.40
2019-04-27T00:29:05.417Z,34.88
2019-04-27T00:31:33.840Z,33.83
2019-04-27T00:34:03.605Z,34.13
2019-04-27T00:36:40.119Z,35.95
2019-04-27T00:39:13.846Z,37.08
2019-04-27T00:41:43.042Z,32.08
2019-04-27T00:44:11.254Z,33.75
2019-04-27T00:46:39.472Z,35.95
2019-04-27T00:49:07.733Z,36.15
2019-04-27T00:51:35.942Z,36.70
2019-04-27T00:54:04.683Z,36.68
2019-04-27T00:56:50.998Z,37.75
2019-04-27T00:59:23.910Z,36.43
2019-04-27T01:01:56.223Z,35.73
2019-04-27T01:04:29.469Z,39.95
2019-04-27T01:06:57.693Z,38.10
2019-04-27T01:09:26.030Z,40.05
2019-04-27T01:11:54.290Z,40.75
2019-04-27T01:14:23.161Z,41.20
2019-04-27T01:16:51.487Z,41.15
2019-04-27T01:19:19.882Z,41.37
2019-04-27T01:21:49.665Z,38.67
2019-04-27T01:24:18.893Z,41.48
2019-04-27T01:26:49.921Z,40.78
2019-04-27T01:29:22.976Z,40.12
2019-04-27T01:31:51.275Z,42.40
2019-04-27T01:34:19.507Z,41.73
2019-04-27T01:36:49.282Z,42.95
2019-04-27T01:39:18.877Z,42.20
2019-04-27T01:41:48.998Z,45.33
2019-04-27T01:44:19.261Z,45.43
2019-04-27T01:46:48.701Z,39.20
2019-04-27T01:49:17.195Z,44.50
2019-04-27T01:51:45.417Z,44.63
2019-04-27T01:54:15.283Z,44.23
2019-04-27T01:56:43.764Z,43.20
2019-04-27T01:59:12.634Z,41.92
2019-04-27T02:01:59.437Z,44.53
2019-04-27T02:04:32.271Z,38.60
2019-04-27T02:07:02.448Z,40.88
2019-04-27T02:09:30.746Z,41.20
2019-04-27T02:11:59.345Z,44.30
2019-04-27T02:14:28.770Z,44.13
2019-04-27T02:16:57.103Z,44.10
2019-04-27T02:19:25.359Z,45.15
2019-04-27T02:21:53.579Z,38.65
2019-04-27T02:24:21.805Z,44.55
2019-04-27T02:26:50.303Z,44.80
2019-04-27T02:29:26.257Z,43.25
2019-04-27T02:31:56.111Z,43.35
2019-04-27T02:34:41.880Z,44.27
2019-04-27T02:37:10.451Z,39.20
2019-04-27T02:39:39.905Z,42.47
2019-04-27T02:42:10.112Z,42.70
2019-04-27T02:44:40.676Z,37.35
2019-04-27T02:47:10.303Z,42.62
2019-04-27T02:49:40.560Z,43.30
2019-04-27T02:52:10.670Z,44.00
2019-04-27T02:54:40.038Z,41.02
2019-04-27T02:57:10.142Z,37.03
2019-04-27T02:59:39.926Z,39.70
2019-04-27T03:02:19.708Z,41.50
2019-04-27T03:04:49.862Z,39.98
2019-04-27T03:07:20.076Z,40.40
2019-04-27T03:09:50.626Z,39.30
2019-04-27T03:12:20.117Z,35.30
2019-04-27T03:14:50.704Z,35.23
2019-04-27T03:17:22.828Z,38.17
2019-04-27T03:20:01.117Z,35.40
2019-04-27T03:22:42.839Z,41.05
2019-04-27T03:25:15.367Z,40.17
2019-04-27T03:27:45.292Z,41.58
2019-04-27T03:30:15.211Z,40.35
2019-04-27T03:32:43.794Z,42.23
2019-04-27T03:35:13.326Z,41.98
2019-04-27T03:37:41.891Z,40.50
2019-04-27T03:40:10.487Z,42.15
2019-04-27T03:42:40.508Z,37.85
2019-04-27T03:45:10.854Z,40.45
2019-04-27T03:47:40.731Z,36.03
2019-04-27T03:50:10.789Z,37.45
2019-04-27T03:52:56.819Z,39.38
2019-04-27T03:55:43.037Z,40.33
2019-04-27T03:58:21.869Z,36.17
2019-04-27T04:00:52.190Z,39.70
2019-04-27T04:03:20.656Z,37.85
2019-04-27T04:05:49.476Z,38.67
2019-04-27T04:08:19.372Z,38.08
2019-04-27T04:10:49.575Z,40.67
2019-04-27T04:13:20.461Z,42.17
2019-04-27T04:15:54.429Z,42.00
2019-04-27T04:18:23.809Z,38.20
2019-04-27T04:20:52.117Z,40.23
2019-04-27T04:23:20.733Z,38.80
2019-04-27T04:25:49.911Z,38.50
2019-04-27T04:28:19.986Z,40.98
2019-04-27T04:30:50.118Z,39.38
2019-04-27T04:33:20.577Z,37.67
2019-04-27T04:35:49.710Z,37.35
2019-04-27T04:38:20.556Z,36.88
2019-04-27T04:40:50.421Z,37.48
2019-04-27T04:43:20.472Z,38.92
2019-04-27T04:46:09.804Z,38.00
2019-04-27T04:48:35.855Z,39.58
2019-04-27T04:51:04.066Z,39.90
2019-04-27T04:53:32.298Z,41.30
2019-04-27T04:56:00.540Z,37.58
2019-04-27T04:58:29.441Z,39.48
2019-04-27T05:00:59.600Z,39.98
2019-04-27T05:03:28.672Z,37.17
2019-04-27T05:05:58.680Z,39.00
2019-04-27T05:08:27.094Z,39.30
2019-04-27T05:10:55.319Z,39.53
2019-04-27T05:13:23.545Z,38.73
2019-04-27T05:15:51.826Z,36.23
2019-04-27T05:18:20.353Z,35.58
2019-04-27T05:20:50.466Z,35.25
2019-04-27T05:23:18.797Z,33.23
2019-04-27T05:25:47.105Z,33.58
2019-04-27T05:28:15.369Z,33.63
2019-04-27T05:30:43.595Z,32.53
2019-04-27T05:33:11.842Z,33.80
2019-04-27T05:35:41.125Z,34.40
2019-04-27T05:38:12.922Z,34.27
2019-04-27T05:40:40.334Z,33.02
2019-04-27T05:43:09.332Z,33.08
2019-04-27T05:46:21.794Z,34.38
2019-04-27T05:48:50.341Z,32.42
2019-04-27T05:51:19.754Z,34.55
2019-04-27T05:53:49.537Z,34.25
2019-04-27T05:56:19.284Z,34.18
2019-04-27T05:58:49.067Z,33.53
2019-04-27T06:01:19.570Z,33.73
2019-04-27T06:03:49.684Z,33.85
2019-04-27T06:06:19.607Z,32.35
2019-04-27T06:08:49.509Z,31.90
2019-04-27T06:11:19.527Z,31.73
2019-04-27T06:13:49.216Z,33.42
2019-04-27T06:16:19.343Z,33.42
2019-04-27T06:18:49.337Z,32.23
2019-04-27T06:21:19.436Z,34.05
2019-04-27T06:23:48.774Z,32.53
2019-04-27T06:26:17.347Z,31.10
2019-04-27T06:28:45.575Z,32.73
2019-04-27T06:31:13.791Z,30.10
2019-04-27T06:33:42.109Z,33.02
2019-04-27T06:36:10.336Z,33.13
2019-04-27T06:38:39.378Z,31.12
2019-04-27T06:41:09.889Z,32.83
2019-04-27T06:43:37.747Z,32.53
2019-04-27T06:46:05.986Z,29.92
2019-04-27T06:48:34.229Z,28.60
2019-04-27T06:51:03.558Z,27.60
2019-04-27T06:53:32.678Z,28.83
2019-04-27T06:56:00.917Z,27.22
2019-04-27T06:58:29.341Z,25.72
2019-04-27T07:00:59.358Z,28.62
2019-04-27T07:03:28.937Z,26.93
2019-04-27T07:05:58.814Z,25.02
2019-04-27T07:08:28.650Z,24.20
2019-04-27T07:10:58.847Z,23.60
2019-04-27T07:13:28.998Z,23.27
2019-04-27T07:15:57.409Z,20.43
2019-04-27T07:18:25.647Z,19.07
2019-04-27T07:20:53.859Z,18.57
2019-04-27T07:23:22.420Z,17.77
2019-04-27T07:25:50.747Z,17.85
2019-04-27T07:28:19.103Z,17.62
2019-04-27T07:30:48.770Z,18.25
2019-04-27T07:33:18.625Z,17.77
2019-04-27T07:35:46.878Z,17.92
2019-04-27T07:38:15.171Z,17.65
2019-04-27T07:40:43.397Z,17.15
2019-04-27T07:43:15.776Z,16.87
2019-04-27T07:45:44.014Z,17.20
2019-04-27T07:48:12.239Z,17.95
2019-04-27T07:50:40.459Z,15.28
2019-04-27T07:53:09.038Z,16.40
2019-04-27T07:55:37.320Z,16.30
2019-04-27T07:58:05.539Z,16.12
2019-04-27T08:00:33.767Z,16.25
2019-04-27T08:03:02.012Z,17.27
2019-04-27T08:05:30.709Z,16.07
2019-04-27T08:08:00.172Z,16.05
2019-04-27T08:10:29.206Z,14.95
2019-04-27T08:12:59.571Z,15.98
2019-04-27T08:15:29.050Z,16.12
2019-04-27T08:17:59.222Z,15.68
2019-04-27T08:20:29.248Z,14.53
2019-04-27T08:23:01.095Z,15.10
2019-04-27T08:25:28.695Z,14.00
2019-04-27T08:28:00.274Z,13.13
2019-04-27T08:30:48.965Z,11.83
2019-04-27T08:33:19.073Z,12.78
2019-04-27T08:35:48.963Z,12.10
2019-04-27T08:38:18.991Z,11.83
2019-04-27T08:40:49.368Z,11.18
2019-04-27T08:43:19.114Z,10.53
2019-04-27T08:45:48.795Z,10.30
2019-04-27T08:48:25.140Z,10.60
2019-04-27T08:50:48.627Z,10.65
2019-04-27T08:53:18.515Z,10.65
2019-04-27T08:55:46.835Z,9.48
2019-04-27T08:58:15.046Z,8.20
2019-04-27T09:00:43.282Z,7.75
2019-04-27T09:03:11.747Z,6.20
2019-04-27T09:05:39.958Z,5.58
2019-04-27T09:08:19.161Z,5.28
2019-04-27T09:10:52.085Z,5.50
2019-04-27T09:13:25.237Z,5.93
2019-04-27T09:16:04.314Z,5.70
2019-04-27T09:18:33.743Z,5.87
2019-04-27T09:21:03.657Z,5.17
2019-04-27T09:23:31.903Z,4.70
2019-04-27T09:26:00.193Z,4.33
2019-04-27T09:28:29.453Z,5.17
2019-04-27T09:30:58.628Z,5.03
2019-04-27T09:33:27.202Z,5.28
2019-04-27T09:35:56.731Z,4.35
2019-04-27T09:38:26.445Z,4.43
2019-04-27T09:40:57.743Z,3.85
2019-04-27T09:43:26.458Z,4.00
2019-04-27T09:45:55.750Z,4.17
2019-04-27T09:48:25.959Z,3.92
2019-04-27T09:50:55.937Z,3.62
2019-04-27T09:53:24.445Z,3.33
2019-04-27T09:55:52.679Z,2.72
2019-04-27T09:58:21.243Z,2.45
2019-04-27T10:00:49.554Z,2.75
2019-04-27T10:03:17.784Z,2.87
2019-04-27T10:05:46.058Z,2.72
2019-04-27T10:08:14.546Z,2.50
2019-04-27T10:10:42.749Z,2.20
2019-04-27T10:13:11.490Z,2.30
2019-04-27T10:15:39.701Z,2.35
2019-04-27T10:18:08.004Z,2.00
2019-04-27T10:20:40.509Z,2.30
2019-04-27T10:23:06.494Z,2.00
2019-04-27T10:25:35.519Z,1.90
2019-04-27T10:28:06.755Z,1.92
2019-04-27T10:30:35.842Z,1.90
2019-04-27T10:33:07.724Z,1.35
2019-04-27T10:35:36.177Z,1.70
2019-04-27T10:38:04.400Z,1.12
2019-04-27T10:40:32.897Z,1.10
2019-04-27T10:43:01.100Z,1.70
2019-04-27T10:45:30.166Z,1.72
2019-04-27T10:47:58.371Z,2.60
2019-04-27T10:50:26.734Z,2.40
2019-04-27T10:52:56.801Z,3.98
2019-04-27T10:55:26.193Z,1.98
2019-04-27T10:57:54.845Z,1.20
2019-04-27T11:00:25.671Z,1.62
2019-04-27T11:02:54.003Z,1.55
2019-04-27T11:05:36.147Z,1.63
2019-04-27T11:08:04.451Z,2.10
2019-04-27T11:10:33.072Z,1.90
2019-04-27T11:13:01.280Z,1.80
2019-04-27T11:15:29.568Z,1.72
2019-04-27T11:17:57.803Z,2.02
2019-04-27T11:20:27.845Z,1.70
2019-04-27T11:23:06.615Z,1.60
2019-04-27T11:25:26.423Z,1.42
2019-04-27T11:27:57.538Z,1.92
2019-04-27T11:30:25.265Z,2.02
2019-04-27T11:32:56.680Z,1.70
2019-04-27T11:35:25.803Z,1.43
2019-04-27T11:37:56.129Z,1.70
2019-04-27T11:40:24.371Z,1.50
2019-04-27T11:42:52.576Z,1.55
2019-04-27T11:45:22.455Z,1.33
2019-04-27T11:47:50.677Z,2.45
2019-04-27T11:50:19.584Z,2.90
2019-04-27T11:52:47.836Z,1.65
2019-04-27T11:55:16.263Z,1.10
2019-04-27T11:57:44.544Z,1.40
2019-04-27T12:00:16.500Z,1.75
2019-04-27T12:02:45.727Z,2.47
2019-04-27T12:05:15.987Z,2.60
2019-04-27T12:07:47.499Z,1.50
2019-04-27T12:10:15.734Z,1.32
2019-04-27T12:12:46.189Z,1.70
2019-04-27T12:15:16.048Z,1.60
2019-04-27T12:17:46.071Z,1.20
2019-04-27T12:20:15.948Z,1.50
2019-04-27T12:22:44.518Z,1.45
2019-04-27T12:25:12.739Z,1.30
2019-04-27T12:27:42.584Z,1.30
2019-04-27T12:30:16.234Z,1.20
2019-04-27T12:32:45.772Z,1.62
2019-04-27T12:35:14.113Z,0.90
2019-04-27T12:37:42.317Z,1.47
2019-04-27T12:40:10.530Z,1.00
2019-04-27T12:42:39.010Z,0.82
2019-04-27T12:45:08.433Z,1.20
2019-04-27T12:47:36.656Z,1.20
2019-04-27T12:50:11.749Z,0.95
2019-04-27T12:52:41.067Z,1.00
2019-04-27T12:55:11.182Z,1.12
2019-04-27T12:57:46.853Z,1.05
2019-04-27T13:00:32.155Z,1.02
2019-04-27T13:03:00.363Z,0.98
2019-04-27T13:05:28.585Z,1.30
2019-04-27T13:07:56.777Z,1.60
2019-04-27T13:10:25.423Z,1.70
2019-04-27T13:12:53.665Z,1.07
2019-04-27T13:15:21.877Z,0.72
2019-04-27T13:17:50.120Z,0.90
2019-04-27T13:20:18.844Z,0.78
2019-04-27T13:22:47.406Z,0.75
2019-04-27T13:25:15.642Z,3.98
2019-04-27T13:27:43.873Z,7.80
2019-04-27T13:30:12.549Z,8.60
2019-04-27T13:32:40.782Z,9.80
2019-04-27T13:35:09.107Z,9.20
2019-04-27T13:37:39.326Z,6.72
2019-04-27T13:40:09.627Z,5.30
2019-04-27T13:42:45.601Z,5.30
2019-04-27T13:45:18.387Z,5.20
2019-04-27T13:48:13.448Z,5.03
2019-04-27T13:50:56.479Z,5.17
2019-04-27T13:53:26.237Z,4.33
2019-04-27T13:55:56.621Z,3.52
2019-04-27T13:58:24.477Z,3.75
2019-04-27T14:00:52.737Z,3.33
2019-04-27T14:03:21.171Z,2.70
2019-04-27T14:05:49.563Z,3.00
2019-04-27T14:08:18.022Z,3.10
2019-04-27T14:10:46.234Z,3.40
2019-04-27T14:13:17.373Z,3.20
2019-04-27T14:15:44.695Z,3.62
2019-04-27T14:18:12.937Z,3.92
2019-04-27T14:20:41.470Z,4.37
2019-04-27T14:23:14.238Z,3.87
2019-04-27T14:25:42.844Z,4.50
2019-04-27T14:28:11.415Z,4.60
2019-04-27T14:30:40.050Z,5.17
2019-04-27T14:33:09.031Z,4.95
2019-04-27T14:35:37.569Z,5.25
2019-04-27T14:38:05.791Z,5.97
2019-04-27T14:40:34.005Z,6.22
2019-04-27T14:43:02.227Z,6.05
2019-04-27T14:45:30.467Z,5.92
2019-04-27T14:47:58.817Z,5.97
2019-04-27T14:50:27.068Z,5.77
2019-04-27T14:52:55.357Z,6.30
2019-04-27T14:55:23.578Z,6.33
2019-04-27T14:57:51.817Z,6.63
2019-04-27T15:00:20.791Z,7.37
2019-04-27T15:02:49.129Z,7.15
2019-04-27T15:05:17.731Z,6.87
2019-04-27T15:07:45.978Z,7.40
2019-04-27T15:10:16.186Z,7.92
2019-04-27T15:12:44.188Z,7.28
2019-04-27T15:15:12.432Z,7.50
2019-04-27T15:17:41.019Z,7.72
2019-04-27T15:20:28.710Z,8.20
2019-04-27T15:22:58.398Z,8.78
2019-04-27T15:25:27.286Z,8.38
2019-04-27T15:28:01.287Z,8.45
2019-04-27T15:30:47.626Z,8.78
2019-04-27T15:33:33.345Z,8.53
2019-04-27T15:36:07.665Z,7.67
2019-04-27T15:38:38.952Z,7.10
2019-04-27T15:41:11.696Z,6.72
2019-04-27T15:43:41.583Z,6.47
2019-04-27T15:46:10.105Z,6.85
2019-04-27T15:48:38.593Z,7.00
2019-04-27T15:51:15.645Z,6.80
2019-04-27T15:53:39.427Z,7.15
2019-04-27T15:56:08.771Z,6.55
2019-04-27T15:58:38.270Z,7.30
2019-04-27T16:01:09.942Z,7.65
2019-04-27T16:03:38.959Z,6.65
2019-04-27T16:06:11.701Z,7.25
2019-04-27T16:08:44.788Z,6.80
2019-04-27T16:11:11.708Z,7.03
2019-04-27T16:13:38.362Z,7.12
2019-04-27T16:16:08.501Z,7.15
2019-04-27T16:18:38.874Z,9.03
2019-04-27T16:21:10.203Z,9.35
2019-04-27T16:23:42.686Z,8.25
2019-04-27T16:26:11.159Z,7.70
2019-04-27T16:28:37.646Z,7.35
2019-04-27T16:31:05.848Z,8.13
2019-04-27T16:33:34.495Z,8.63
2019-04-27T16:36:06.988Z,8.08
2019-04-27T16:38:38.796Z,7.67
2019-04-27T16:41:08.191Z,8.58
2019-04-27T16:43:38.431Z,8.58
2019-04-27T16:46:06.427Z,8.23
2019-04-27T16:48:36.138Z,9.65
2019-04-27T16:51:04.544Z,9.95
2019-04-27T16:53:38.182Z,10.13
2019-04-27T16:56:14.722Z,11.43
2019-04-27T16:58:39.719Z,12.13
2019-04-27T17:01:10.864Z,9.88
2019-04-27T17:03:41.384Z,7.20
2019-04-27T17:06:09.389Z,3.58
2019-04-27T17:08:39.384Z,2.92
2019-04-27T17:11:11.410Z,2.87
2019-04-27T17:13:39.384Z,4.15
2019-04-27T17:16:24.670Z,3.77
2019-04-27T17:18:57.756Z,3.10
2019-04-27T17:21:25.865Z,3.50
2019-04-27T17:23:56.956Z,3.83
2019-04-27T17:26:24.319Z,5.10
2019-04-27T17:28:59.765Z,6.80
2019-04-27T17:31:29.724Z,7.17
2019-04-27T17:34:00.553Z,7.28
2019-04-27T17:36:29.282Z,6.60
2019-04-27T17:38:58.313Z,8.33
2019-04-27T17:41:28.305Z,8.85
2019-04-27T17:43:58.960Z,8.65
2019-04-27T17:46:28.220Z,10.23
2019-04-27T17:49:00.010Z,9.35
2019-04-27T17:51:28.593Z,10.77
2019-04-27T17:53:58.641Z,10.58
2019-04-27T17:56:35.345Z,10.77
2019-04-27T17:58:58.635Z,9.93
2019-04-27T18:01:30.145Z,12.00
2019-04-27T18:04:00.289Z,11.65
2019-04-27T18:06:29.478Z,11.65
2019-04-27T18:09:01.547Z,8.43
2019-04-27T18:11:28.771Z,7.97
2019-04-27T18:14:00.346Z,7.95
2019-04-27T18:16:30.334Z,7.27
2019-04-27T18:19:07.970Z,7.00
2019-04-27T18:21:30.506Z,6.65
2019-04-27T18:24:09.422Z,5.37
2019-04-27T18:26:56.365Z,5.58
2019-04-27T18:29:22.790Z,4.53
2019-04-27T18:31:54.543Z,5.05
2019-04-27T18:34:21.521Z,5.50
2019-04-27T18:36:49.743Z,5.22
2019-04-27T18:39:18.351Z,5.08
2019-04-27T18:41:50.595Z,5.12
2019-04-27T18:44:19.006Z,6.17
2019-04-27T18:46:48.790Z,6.47
2019-04-27T18:49:30.232Z,5.12
2019-04-27T18:52:06.551Z,5.90
2019-04-27T18:54:38.292Z,6.37
2019-04-27T18:57:05.593Z,6.60
2019-04-27T18:59:34.147Z,6.47
2019-04-27T19:02:02.631Z,5.35
2019-04-27T19:04:30.832Z,5.03
2019-04-27T19:07:00.101Z,6.50
2019-04-27T19:09:28.683Z,5.40
2019-04-27T19:11:56.889Z,4.40
2019-04-27T19:14:25.437Z,4.70
2019-04-27T19:16:53.643Z,4.85
2019-04-27T19:19:22.212Z,4.62
2019-04-27T19:21:50.676Z,4.20
2019-04-27T19:24:19.330Z,4.37
2019-04-27T19:27:15.268Z,5.30
2019-04-27T19:29:39.629Z,4.83
2019-04-27T19:32:08.156Z,4.90
2019-04-27T19:34:36.746Z,4.78
2019-04-27T19:37:05.322Z,5.12
2019-04-27T19:39:33.532Z,4.83
2019-04-27T19:42:03.857Z,4.58
2019-04-27T19:44:31.705Z,4.90
2019-04-27T19:47:00.363Z,4.40
2019-04-27T19:49:31.271Z,4.47
2019-04-27T19:51:58.896Z,4.53
2019-04-27T19:54:28.293Z,4.35
2019-04-27T19:56:57.155Z,4.62
2019-04-27T19:59:28.047Z,5.70
2019-04-27T20:01:58.412Z,5.25
2019-04-27T20:04:31.296Z,4.20
2019-04-27T20:06:59.603Z,4.27
2019-04-27T20:09:49.799Z,4.65
2019-04-27T20:12:18.061Z,4.30
2019-04-27T20:14:55.380Z,4.37
2019-04-27T20:17:24.756Z,4.30
2019-04-27T20:19:52.966Z,4.42
2019-04-27T20:22:22.780Z,4.60
2019-04-27T20:24:51.387Z,4.15
2019-04-27T20:27:21.181Z,3.90
2019-04-27T20:29:49.526Z,4.00
2019-04-27T20:32:17.749Z,3.90
2019-04-27T20:34:46.290Z,4.30
2019-04-27T20:37:14.501Z,3.95
2019-04-27T20:39:43.034Z,4.00
2019-04-27T20:42:12.616Z,4.00
2019-04-27T20:44:41.312Z,3.87
2019-04-27T20:47:10.193Z,4.12
2019-04-27T20:49:38.397Z,3.62
2019-04-27T20:52:08.297Z,3.80
2019-04-27T20:54:36.763Z,4.62
2019-04-27T20:57:05.851Z,3.45
2019-04-27T20:59:34.150Z,2.98
2019-04-27T21:02:22.356Z,3.95
2019-04-27T21:04:51.879Z,3.55
2019-04-27T21:07:21.730Z,3.60
2019-04-27T21:09:50.302Z,3.50
2019-04-27T21:12:18.882Z,3.60
2019-04-27T21:14:47.478Z,3.42
2019-04-27T21:17:16.061Z,3.62
2019-04-27T21:19:44.282Z,3.52
2019-04-27T21:22:12.490Z,3.47
2019-04-27T21:24:41.359Z,3.72
2019-04-27T21:27:12.864Z,3.52
2019-04-27T21:29:39.837Z,3.22
2019-04-27T21:32:08.369Z,3.40
2019-04-27T21:34:36.554Z,4.25
2019-04-27T21:37:05.014Z,3.60
2019-04-27T21:39:33.224Z,3.70
2019-04-27T21:42:01.461Z,4.28
2019-04-27T21:44:29.664Z,3.97
2019-04-27T21:46:57.886Z,4.40
2019-04-27T21:49:26.132Z,3.90
2019-04-27T21:52:14.535Z,3.35
2019-04-27T21:54:48.500Z,3.58
2019-04-27T21:57:16.870Z,3.50
2019-04-27T21:59:45.140Z,3.52
2019-04-27T22:02:14.623Z,4.28
2019-04-27T22:04:42.815Z,3.87
2019-04-27T22:07:11.527Z,3.47
2019-04-27T22:09:43.092Z,3.60
2019-04-27T22:12:11.215Z,3.22
2019-04-27T22:14:39.984Z,3.17
2019-04-27T22:17:08.460Z,2.90
2019-04-27T22:19:36.672Z,3.17
2019-04-27T22:22:06.523Z,3.67
2019-04-27T22:24:36.359Z,3.42
2019-04-27T22:27:04.560Z,3.45
2019-04-27T22:29:33.151Z,3.65
2019-04-27T22:32:01.701Z,3.92
2019-04-27T22:34:31.200Z,3.67
2019-04-27T22:37:02.314Z,4.08
2019-04-27T22:39:31.563Z,4.15
2019-04-27T22:42:01.813Z,4.10
2019-04-27T22:44:31.818Z,4.50
2019-04-27T22:46:59.961Z,4.42
2019-04-27T22:49:28.182Z,5.20
2019-04-27T22:51:56.734Z,5.28
2019-04-27T22:54:25.210Z,4.90
2019-04-27T22:56:55.321Z,5.15
2019-04-27T22:59:34.160Z,5.70
2019-04-27T23:02:04.005Z,5.90
2019-04-27T23:04:43.103Z,6.65
2019-04-27T23:07:11.306Z,7.00
2019-04-27T23:09:40.717Z,6.92
2019-04-27T23:12:09.794Z,7.10
2019-04-27T23:14:38.006Z,6.92
2019-04-27T23:17:24.276Z,7.87
2019-04-27T23:19:52.680Z,7.62
2019-04-27T23:22:21.410Z,7.70
2019-04-27T23:24:51.717Z,8.05
2019-04-27T23:27:21.517Z,8.50
2019-04-27T23:29:51.486Z,8.38
2019-04-27T23:32:33.355Z,9.30
2019-04-27T23:35:01.558Z,9.18
2019-04-27T23:37:29.782Z,8.68
2019-04-27T23:39:58.291Z,9.50
2019-04-27T23:42:26.538Z,9.40
2019-04-27T23:44:54.755Z,9.55
2019-04-27T23:47:22.985Z,9.87
2019-04-27T23:49:51.246Z,10.40
2019-04-27T23:52:37.461Z,9.45
2019-04-27T23:55:06.044Z,10.25
2019-04-27T23:57:34.271Z,9.08
